Time;durP1;ratioP1;P1;durP2;ratioP2;P2;SDS_P1;SDS_P2;PMS_P1;PMS_P2;Temp;Humidity;BMP_temperature;BMP_pressure;BME280_temperature;BME280_humidity;BME280_pressure;Samples;Min_cycle;Max_cycle;Signal;HPM_P1;HPM_P2
2023/04/08 00:02:15;;;;;;;28.98;16.35;;;;;;;8.35;100.00;99869.44;5139431;28;20051;-59
2023/04/08 00:04:41;;;;;;;24.77;15.48;;;;;;;8.31;100.00;99882.16;5139077;28;20317;-64
2023/04/08 00:07:07;;;;;;;30.10;17.42;;;;;;;8.10;100.00;99882.13;5139279;28;20047;-62
2023/04/08 00:09:34;;;;;;;23.80;15.10;;;;;;;7.99;100.00;99877.03;5139159;28;20435;-62
2023/04/08 00:12:00;;;;;;;29.40;16.00;;;;;;;7.78;100.00;99865.28;5138997;28;20141;-64
2023/04/08 00:14:26;;;;;;;23.38;15.48;;;;;;;7.92;100.00;99851.38;5139084;28;20385;-62
2023/04/08 00:16:52;;;;;;;31.75;16.73;;;;;;;8.11;100.00;99834.56;5139112;28;20137;-60
2023/04/08 00:19:18;;;;;;;34.67;17.83;;;;;;;8.25;100.00;99827.72;5139163;27;20154;-59
2023/04/08 00:21:44;;;;;;;28.10;16.30;;;;;;;8.39;100.00;99830.19;5138871;28;20051;-64
2023/04/08 00:24:10;;;;;;;25.33;15.35;;;;;;;8.15;100.00;99860.09;5139267;28;20112;-65
2023/04/08 00:26:37;;;;;;;27.48;16.30;;;;;;;8.45;100.00;99855.41;5138613;28;20400;-64
2023/04/08 00:29:03;;;;;;;33.75;18.23;;;;;;;8.41;100.00;99858.00;5139353;27;20047;-64
2023/04/08 00:31:29;;;;;;;35.00;17.33;;;;;;;8.32;100.00;99868.16;5139020;28;20047;-65
2023/04/08 00:33:55;;;;;;;27.15;16.23;;;;;;;8.35;100.00;99861.22;5140043;28;20062;-58
2023/04/08 00:36:21;;;;;;;29.08;17.65;;;;;;;8.31;100.00;99860.31;5140227;27;20059;-63
2023/04/08 00:38:47;;;;;;;31.20;16.50;;;;;;;8.55;100.00;99851.47;5138563;28;20115;-64
2023/04/08 00:41:13;;;;;;;30.05;16.60;;;;;;;8.48;100.00;99866.47;5138842;28;20146;-63
2023/04/08 00:43:40;;;;;;;24.42;16.30;;;;;;;8.30;100.00;99877.81;5138873;27;20145;-61
2023/04/08 00:46:06;;;;;;;28.20;15.95;;;;;;;8.53;100.00;99856.44;5138723;28;20137;-59
2023/04/08 00:48:32;;;;;;;30.90;17.52;;;;;;;8.48;100.00;99854.72;5138439;28;20088;-63
2023/04/08 00:50:57;;;;;;;28.40;16.73;;;;;;;8.64;100.00;99860.41;5139021;28;20355;-63
2023/04/08 00:53:24;;;;;;;30.65;16.20;;;;;;;8.74;100.00;99876.38;5138527;28;20051;-64
2023/04/08 00:55:50;;;;;;;32.22;16.00;;;;;;;8.76;100.00;99895.19;5138704;28;20142;-60
2023/04/08 00:58:18;;;;;;;31.85;16.10;;;;;;;8.63;100.00;99902.50;5138042;27;20401;-63
2023/04/08 01:00:51;;;;;;;27.08;16.23;;;;;;;8.72;100.00;99889.56;5138133;28;20047;-61
2023/04/08 01:03:25;;;;;;;29.02;16.05;;;;;;;8.80;100.00;99905.13;5138156;28;20055;-64
2023/04/08 01:05:59;;;;;;;26.93;16.60;;;;;;;8.77;100.00;99918.66;5138197;28;20058;-61
2023/04/08 01:08:28;;;;;;;33.63;16.10;;;;;;;8.45;100.00;99938.16;5138497;27;20285;-61
2023/04/08 01:10:58;;;;;;;30.30;16.70;;;;;;;8.79;100.00;99924.59;5137943;28;20412;-63
2023/04/08 01:13:25;;;;;;;31.17;16.25;;;;;;;8.92;100.00;99924.31;5138438;27;20138;-59
2023/04/08 01:15:53;;;;;;;29.58;17.63;;;;;;;8.88;100.00;99945.25;5138200;28;20119;-65
2023/04/08 01:18:21;;;;;;;30.50;16.95;;;;;;;8.36;100.00;99940.13;5138394;28;20053;-64
2023/04/08 01:20:49;;;;;;;33.97;18.08;;;;;;;8.78;100.00;99912.84;5137911;28;20432;-61
2023/04/08 01:23:23;;;;;;;33.38;17.27;;;;;;;8.85;100.00;99928.72;5138098;27;20178;-61
2023/04/08 01:25:51;;;;;;;27.20;15.75;;;;;;;8.49;100.00;99949.22;5137770;27;20397;-60
2023/04/08 01:28:20;;;;;;;28.05;16.05;;;;;;;8.78;100.00;99940.19;5138025;28;20047;-64
2023/04/08 01:30:48;;;;;;;31.10;16.67;;;;;;;8.82;100.00;99945.78;5137921;28;20400;-64
2023/04/08 01:33:16;;;;;;;29.75;16.70;;;;;;;8.82;100.00;99951.25;5137853;28;20133;-63
2023/04/08 01:35:42;;;;;;;31.20;16.70;;;;;;;8.73;100.00;99959.53;5137825;28;20047;-60
2023/04/08 01:38:13;;;;;;;29.98;16.42;;;;;;;8.90;100.00;99959.41;5137701;28;20145;-64
2023/04/08 01:40:41;;;;;;;34.97;17.17;;;;;;;8.83;100.00;99969.25;5137991;28;20046;-64
2023/04/08 01:43:09;;;;;;;32.42;16.92;;;;;;;8.78;100.00;99978.47;5137496;28;20487;-65
2023/04/08 01:45:35;;;;;;;32.53;16.80;;;;;;;8.78;100.00;99967.53;5138019;27;20058;-64
2023/04/08 01:48:02;;;;;;;32.97;18.50;;;;;;;8.60;100.00;99963.34;5137705;28;20076;-61
2023/04/08 01:50:30;;;;;;;29.83;18.35;;;;;;;8.72;100.00;99957.91;5137703;28;20371;-62
2023/04/08 01:52:58;;;;;;;32.45;18.48;;;;;;;8.82;100.00;99954.00;5137540;28;20431;-64
2023/04/08 01:55:25;;;;;;;30.98;17.38;;;;;;;8.90;100.00;99955.88;5137507;28;20067;-59
2023/04/08 01:57:53;;;;;;;31.52;17.17;;;;;;;8.95;100.00;99964.66;5137533;28;20400;-62
2023/04/08 02:00:25;;;;;;;33.05;17.55;;;;;;;8.64;100.00;99977.94;5137441;28;20055;-62
2023/04/08 02:02:52;;;;;;;28.42;15.88;;;;;;;8.81;100.00;99961.41;5137706;28;20066;-61
2023/04/08 02:05:18;;;;;;;28.35;16.80;;;;;;;8.77;100.00;99976.06;5137302;28;20142;-64
2023/04/08 02:07:46;;;;;;;27.15;16.02;;;;;;;8.84;100.00;99974.41;5137589;28;20055;-60
2023/04/08 02:10:12;;;;;;;30.02;16.08;;;;;;;8.75;100.00;99976.41;5137249;27;20051;-61
2023/04/08 02:12:38;;;;;;;32.75;17.27;;;;;;;8.88;100.00;99975.34;5140740;28;20114;-62
2023/04/08 02:15:05;;;;;;;26.02;15.65;;;;;;;8.95;100.00;99975.59;5140974;28;20374;-62
2023/04/08 02:17:39;;;;;;;24.67;15.85;;;;;;;8.89;100.00;99976.91;5141048;28;20419;-61
2023/04/08 02:20:08;;;;;;;32.83;16.23;;;;;;;8.95;100.00;99983.78;5140887;28;20058;-62
2023/04/08 02:22:39;;;;;;;26.35;15.52;;;;;;;9.16;100.00;99993.94;5140742;28;20061;-62
2023/04/08 02:25:10;;;;;;;26.23;15.25;;;;;;;9.02;100.00;100012.56;5140928;27;20051;-62
2023/04/08 02:27:38;;;;;;;26.35;16.60;;;;;;;9.03;100.00;100019.63;5140570;27;20046;-61
2023/04/08 02:30:05;;;;;;;27.98;16.58;;;;;;;8.83;100.00;100024.75;5141068;27;20142;-65
2023/04/08 02:32:34;;;;;;;25.80;15.55;;;;;;;9.10;100.00;100023.44;5140303;28;20380;-62
2023/04/08 02:35:02;;;;;;;27.25;15.82;;;;;;;9.10;100.00;100025.38;5140459;28;20111;-61
2023/04/08 02:37:29;;;;;;;27.08;15.90;;;;;;;9.10;100.00;100041.78;5140488;28;20055;-63
2023/04/08 02:39:55;;;;;;;27.55;14.32;;;;;;;9.14;100.00;100042.72;5140672;28;20051;-61
2023/04/08 02:42:21;;;;;;;27.05;16.05;;;;;;;9.12;100.00;100058.66;5140752;28;20051;-63
2023/04/08 02:44:48;;;;;;;24.27;15.05;;;;;;;9.13;100.00;100049.31;5140634;28;20047;-61
2023/04/08 02:47:14;;;;;;;27.90;15.40;;;;;;;9.15;100.00;100058.00;5140617;28;20055;-59
2023/04/08 02:49:40;;;;;;;27.80;15.57;;;;;;;9.07;100.00;100056.94;5140327;27;20053;-63
2023/04/08 02:52:06;;;;;;;23.25;15.25;;;;;;;8.97;100.00;100054.59;5140526;28;20220;-63
2023/04/08 02:54:32;;;;;;;30.30;15.65;;;;;;;8.98;100.00;100049.91;5140254;28;20082;-64
2023/04/08 02:56:58;;;;;;;30.05;16.30;;;;;;;8.89;100.00;100061.69;5140649;28;20298;-64
2023/04/08 02:59:24;;;;;;;27.15;15.52;;;;;;;8.90;100.00;100054.31;5140200;28;20420;-64
2023/04/08 03:01:50;;;;;;;28.85;16.52;;;;;;;8.70;100.00;100059.41;5140621;28;20047;-63
2023/04/08 03:04:16;;;;;;;25.73;16.02;;;;;;;8.81;100.00;100048.09;5140117;27;20043;-61
2023/04/08 03:06:42;;;;;;;28.90;16.65;;;;;;;8.71;100.00;100043.81;5140356;28;20047;-60
2023/04/08 03:09:08;;;;;;;29.00;15.55;;;;;;;8.62;100.00;100043.03;5140311;28;20106;-61
2023/04/08 03:11:34;;;;;;;27.77;17.23;;;;;;;8.46;100.00;100040.91;5139953;28;20438;-61
2023/04/08 03:14:00;;;;;;;30.77;16.85;;;;;;;8.35;100.00;100031.41;5140008;28;20055;-63
2023/04/08 03:16:26;;;;;;;29.80;16.33;;;;;;;8.50;100.00;100016.44;5140078;28;20150;-64
2023/04/08 03:18:52;;;;;;;32.00;17.38;;;;;;;8.40;100.00;99998.50;5140033;27;20059;-63
2023/04/08 03:21:18;;;;;;;31.35;16.75;;;;;;;8.56;100.00;99986.97;5139948;27;20153;-61
2023/04/08 03:23:45;;;;;;;27.48;17.10;;;;;;;8.33;100.00;99975.50;5139719;28;20054;-61
2023/04/08 03:26:11;;;;;;;29.75;16.95;;;;;;;8.45;100.00;99957.28;5139560;28;20055;-59
2023/04/08 03:28:37;;;;;;;34.53;16.38;;;;;;;8.44;100.00;99952.97;5140086;28;20054;-63
2023/04/08 03:31:03;;;;;;;24.30;16.15;;;;;;;8.62;100.00;99956.38;5139667;28;20104;-64
2023/04/08 03:33:29;;;;;;;31.25;16.80;;;;;;;8.64;100.00;99959.59;5140106;28;20467;-61
2023/04/08 03:35:55;;;;;;;31.98;17.38;;;;;;;8.56;100.00;99965.91;5139431;28;20054;-64
2023/04/08 03:38:21;;;;;;;24.27;15.88;;;;;;;8.65;100.00;99968.59;5139795;27;20055;-65
2023/04/08 03:40:48;;;;;;;27.60;16.08;;;;;;;8.64;100.00;99976.00;5139593;27;20114;-64
2023/04/08 03:43:14;;;;;;;26.67;15.10;;;;;;;8.69;100.00;99983.97;5139710;28;20430;-62
2023/04/08 03:45:40;;;;;;;28.85;15.85;;;;;;;8.41;100.00;99996.56;5139874;27;20043;-61
2023/04/08 03:48:06;;;;;;;32.50;16.25;;;;;;;8.58;100.00;99988.25;5139527;28;20065;-65
2023/04/08 03:50:32;;;;;;;33.28;16.08;;;;;;;8.74;100.00;99988.47;5139565;27;20147;-63
2023/04/08 03:52:58;;;;;;;31.90;15.30;;;;;;;8.77;100.00;100004.22;5139505;28;20044;-64
2023/04/08 03:55:24;;;;;;;31.35;16.38;;;;;;;8.83;100.00;100013.81;5139888;28;20107;-63
2023/04/08 03:57:51;;;;;;;30.27;15.30;;;;;;;8.81;100.00;100018.81;5139724;28;20051;-62
2023/04/08 04:00:17;;;;;;;24.02;15.40;;;;;;;8.84;100.00;100026.34;5140422;28;20047;-64
2023/04/08 04:02:43;;;;;;;27.25;14.50;;;;;;;8.73;100.00;100041.56;5139335;28;20150;-62
2023/04/08 04:05:09;;;;;;;29.02;14.98;;;;;;;8.75;100.00;100047.47;5139656;28;20075;-61
2023/04/08 04:07:34;;;;;;;23.20;14.88;;;;;;;8.73;100.00;100057.97;5139212;28;20051;-60
2023/04/08 04:10:01;;;;;;;24.85;15.13;;;;;;;8.75;100.00;100060.34;5139285;28;20051;-61
2023/04/08 04:12:26;;;;;;;26.52;14.80;;;;;;;8.67;100.00;100056.53;5139360;28;20050;-64
2023/04/08 04:14:53;;;;;;;24.33;15.38;;;;;;;8.66;100.00;100053.00;5139117;27;20331;-65
2023/04/08 04:17:19;;;;;;;29.80;14.95;;;;;;;8.48;100.00;100049.53;5139313;27;20047;-64
2023/04/08 04:19:45;;;;;;;30.35;16.77;;;;;;;8.44;100.00;100031.41;5139080;28;20393;-65
2023/04/08 04:22:11;;;;;;;26.85;15.05;;;;;;;8.37;100.00;100020.19;5139112;28;20047;-64
2023/04/08 04:24:36;;;;;;;38.00;17.08;;;;;;;8.28;100.00;100011.22;5138861;27;20051;-64
2023/04/08 04:27:02;;;;;;;28.92;15.80;;;;;;;8.56;100.00;99993.22;5139036;28;20395;-62
2023/04/08 04:29:30;;;;;;;34.55;15.85;;;;;;;8.51;100.00;100003.56;5138931;28;20103;-61
2023/04/08 04:31:57;;;;;;;26.95;15.27;;;;;;;8.57;100.00;100005.00;5139216;27;20057;-60
2023/04/08 04:34:23;;;;;;;24.67;14.07;;;;;;;8.63;100.00;99998.19;5137682;27;20137;-60
2023/04/08 04:36:48;;;;;;;29.17;15.77;;;;;;;8.62;100.00;100000.13;5138752;28;20051;-60
2023/04/08 04:39:15;;;;;;;23.92;14.68;;;;;;;8.65;100.00;100006.84;5138501;27;20105;-63
2023/04/08 04:41:41;;;;;;;30.30;14.63;;;;;;;8.60;100.00;100012.53;5138640;28;20051;-64
2023/04/08 04:44:06;;;;;;;32.10;15.30;;;;;;;8.60;100.00;100020.72;5138620;28;20401;-61
2023/04/08 04:46:32;;;;;;;31.17;15.18;;;;;;;8.62;100.00;100015.72;5138387;28;20096;-61
2023/04/08 04:48:59;;;;;;;22.88;15.02;;;;;;;8.65;100.00;100023.25;5138717;28;20380;-59
2023/04/08 04:51:25;;;;;;;26.02;15.02;;;;;;;8.51;100.00;100019.97;5138414;28;20069;-60
2023/04/08 04:53:51;;;;;;;26.98;15.05;;;;;;;8.52;100.00;100007.91;5138655;27;20089;-61
2023/04/08 04:56:17;;;;;;;22.92;13.88;;;;;;;8.45;100.00;99989.28;5138339;28;20051;-61
2023/04/08 04:58:43;;;;;;;30.23;14.75;;;;;;;8.39;100.00;99982.41;5138641;28;20044;-60
2023/04/08 05:01:09;;;;;;;28.35;14.40;;;;;;;8.54;100.00;99972.84;5138343;27;20105;-60
2023/04/08 05:03:35;;;;;;;22.05;14.52;;;;;;;8.09;100.00;99965.19;5138484;28;20123;-65
2023/04/08 05:06:02;;;;;;;24.90;14.27;;;;;;;8.02;100.00;99952.84;5138184;28;20366;-64
2023/04/08 05:08:28;;;;;;;21.20;13.07;;;;;;;8.32;100.00;99938.38;5138250;28;20150;-65
2023/04/08 05:10:54;;;;;;;27.52;14.88;;;;;;;8.31;100.00;99934.06;5138248;28;20051;-64
2023/04/08 05:13:21;;;;;;;26.52;14.10;;;;;;;8.41;100.00;99931.78;5137852;28;20058;-62
2023/04/08 05:15:47;;;;;;;23.73;14.25;;;;;;;8.34;100.00;99949.78;5138364;27;20057;-61
2023/04/08 05:18:13;;;;;;;29.70;13.90;;;;;;;8.40;100.00;99949.31;5137770;27;20439;-64
2023/04/08 05:20:39;;;;;;;23.00;13.45;;;;;;;8.17;100.00;99958.88;5138463;27;20199;-62
2023/04/08 05:23:06;;;;;;;25.63;14.30;;;;;;;8.30;100.00;99944.19;5137897;28;20142;-61
2023/04/08 05:25:33;;;;;;;26.13;12.88;;;;;;;8.41;100.00;99950.09;5138193;27;20309;-61
2023/04/08 05:27:59;;;;;;;24.38;12.65;;;;;;;8.41;100.00;99964.56;5137705;27;20062;-60
2023/04/08 05:30:25;;;;;;;21.48;12.88;;;;;;;8.18;100.00;99968.69;5138230;27;20380;-61
2023/04/08 05:32:51;;;;;;;27.73;13.98;;;;;;;8.33;100.00;99965.41;5137678;28;20365;-63
2023/04/08 05:35:16;;;;;;;24.75;12.90;;;;;;;8.43;100.00;99967.78;5138019;28;20396;-63
2023/04/08 05:37:42;;;;;;;20.77;12.55;;;;;;;8.54;100.00;99972.84;5137786;28;20050;-64
2023/04/08 05:40:10;;;;;;;20.38;12.52;;;;;;;8.64;100.00;99989.66;5137713;27;20141;-65
2023/04/08 05:42:36;;;;;;;31.58;12.02;;;;;;;8.53;100.00;100015.78;5137794;27;20054;-63
2023/04/08 05:45:02;;;;;;;22.80;11.40;;;;;;;8.63;100.00;100025.50;5137416;27;20093;-64
2023/04/08 05:47:28;;;;;;;23.20;13.35;;;;;;;8.59;100.00;100052.69;5137664;28;20394;-59
2023/04/08 05:49:54;;;;;;;17.45;11.57;;;;;;;8.68;100.00;100052.66;5137411;28;20137;-58
2023/04/08 05:52:20;;;;;;;20.02;12.32;;;;;;;8.80;100.00;100065.63;5137939;27;20051;-63
2023/04/08 05:54:46;;;;;;;22.25;12.07;;;;;;;8.83;100.00;100086.81;5137552;28;20302;-65
2023/04/08 05:57:12;;;;;;;19.95;12.98;;;;;;;8.93;100.00;100100.94;5137902;28;20054;-62
2023/04/08 05:59:38;;;;;;;24.45;13.25;;;;;;;9.05;100.00;100124.81;5137340;28;20046;-63
2023/04/08 06:02:04;;;;;;;32.80;13.05;;;;;;;9.16;100.00;100141.66;5137974;28;20146;-62
2023/04/08 06:04:30;;;;;;;24.90;14.02;;;;;;;8.67;100.00;100158.47;5137157;28;20320;-60
2023/04/08 06:06:58;;;;;;;22.10;12.90;;;;;;;9.18;100.00;100148.41;5137229;27;20138;-60
2023/04/08 06:09:24;;;;;;;20.85;12.68;;;;;;;9.15;100.00;100173.69;5137474;28;20055;-62
2023/04/08 06:11:50;;;;;;;26.70;12.30;;;;;;;8.99;100.00;100189.06;5137437;28;20051;-60
2023/04/08 06:14:17;;;;;;;24.10;12.65;;;;;;;9.25;100.00;100191.66;5137323;28;20047;-61
2023/04/08 06:16:43;;;;;;;23.52;13.90;;;;;;;9.06;100.00;100203.00;5137433;28;20390;-60
2023/04/08 06:19:09;;;;;;;24.02;13.15;;;;;;;9.31;100.00;100182.13;5137269;28;20050;-62
2023/04/08 06:21:35;;;;;;;22.73;12.55;;;;;;;9.35;100.00;100202.22;5137042;28;20047;-64
2023/04/08 06:24:01;;;;;;;22.00;12.00;;;;;;;9.26;100.00;100217.88;5137617;28;20051;-62
2023/04/08 06:26:27;;;;;;;18.90;11.18;;;;;;;9.48;100.00;100218.75;5136836;27;20048;-62
2023/04/08 06:28:53;;;;;;;25.35;11.43;;;;;;;9.57;100.00;100233.19;5137403;27;20058;-61
2023/04/08 06:31:20;;;;;;;19.98;12.07;;;;;;;9.61;100.00;100228.63;5136915;28;20328;-63
2023/04/08 06:33:46;;;;;;;20.63;11.55;;;;;;;9.40;100.00;100225.88;5137320;28;20047;-65
2023/04/08 06:36:12;;;;;;;15.85;10.90;;;;;;;9.52;100.00;100225.94;5137038;28;20200;-64
2023/04/08 06:38:40;;;;;;;26.63;11.23;;;;;;;9.72;100.00;100235.31;5136830;28;20142;-64
2023/04/08 06:41:07;;;;;;;20.95;11.43;;;;;;;9.39;100.00;100229.72;5137088;28;20138;-62
2023/04/08 06:43:34;;;;;;;18.30;11.18;;;;;;;9.51;100.00;100231.75;5136840;28;20053;-61
2023/04/08 06:46:00;;;;;;;23.17;10.80;;;;;;;9.83;100.00;100231.06;5137072;27;20043;-60
2023/04/08 06:48:29;;;;;;;20.05;10.90;;;;;;;9.66;100.00;100237.47;5136580;28;20066;-65
2023/04/08 06:50:55;;;;;;;24.02;11.45;;;;;;;9.64;100.00;100238.94;5136978;28;20059;-63
2023/04/08 06:53:22;;;;;;;21.27;10.82;;;;;;;10.01;100.00;100264.59;5136568;28;20051;-66
2023/04/08 06:55:48;;;;;;;19.60;10.85;;;;;;;9.60;100.00;100277.13;5137079;28;20051;-60
2023/04/08 06:58:14;;;;;;;21.63;11.77;;;;;;;10.09;100.00;100273.88;5139089;27;20393;-61
2023/04/08 07:00:41;;;;;;;23.40;11.50;;;;;;;10.13;100.00;100291.28;5140576;28;20082;-63
2023/04/08 07:03:07;;;;;;;19.45;10.52;;;;;;;9.68;100.00;100310.25;5140068;28;20227;-60
2023/04/08 07:05:36;;;;;;;23.45;11.32;;;;;;;9.88;100.00;100312.22;5139927;28;20068;-61
2023/04/08 07:08:02;;;;;;;20.23;11.40;;;;;;;10.08;100.00;100307.91;5140045;28;20408;-65
2023/04/08 07:10:27;;;;;;;17.67;11.25;;;;;;;10.40;100.00;100311.88;5140130;28;20147;-65
2023/04/08 07:12:53;;;;;;;18.33;10.75;;;;;;;10.17;100.00;100316.06;5140322;28;20043;-63
2023/04/08 07:15:19;;;;;;;21.85;10.70;;;;;;;10.15;100.00;100324.59;5140264;28;20074;-60
2023/04/08 07:17:46;;;;;;;25.80;11.60;;;;;;;10.54;100.00;100323.34;5140347;28;20419;-61
2023/04/08 07:20:12;;;;;;;20.77;10.77;;;;;;;10.31;100.00;100319.38;5140003;27;20062;-60
2023/04/08 07:22:39;;;;;;;23.27;10.27;;;;;;;10.55;100.00;100315.94;5140967;28;20320;-61
2023/04/08 07:25:06;;;;;;;17.35;9.45;;;;;;;10.91;100.00;100314.47;5140244;28;20186;-62
2023/04/08 07:27:33;;;;;;;19.58;9.93;;;;;;;11.05;100.00;100301.22;5140499;27;20051;-62
2023/04/08 07:30:00;;;;;;;15.80;9.48;;;;;;;11.12;100.00;100278.72;5139538;28;20138;-61
2023/04/08 07:32:26;;;;;;;18.77;8.57;;;;;;;11.20;100.00;100218.22;5139818;28;20054;-64
2023/04/08 07:34:52;;;;;;;19.55;10.02;;;;;;;11.15;100.00;100133.38;5139945;28;20051;-61
2023/04/08 07:37:18;;;;;;;13.63;8.35;;;;;;;11.48;100.00;100093.94;5139760;28;20050;-63
2023/04/08 07:39:44;;;;;;;19.58;8.80;;;;;;;11.50;100.00;100067.75;5139670;28;20047;-66
2023/04/08 07:42:10;;;;;;;14.95;9.45;;;;;;;11.40;100.00;100027.06;5139447;28;20432;-64
2023/04/08 07:44:37;;;;;;;15.65;8.40;;;;;;;11.57;100.00;100019.66;5139774;28;20373;-63
2023/04/08 07:47:03;;;;;;;15.30;8.50;;;;;;;11.69;100.00;100001.16;5139296;28;20309;-65
2023/04/08 07:49:29;;;;;;;17.02;9.13;;;;;;;11.38;100.00;99992.88;5139781;28;20386;-63
2023/04/08 07:51:56;;;;;;;20.95;9.45;;;;;;;11.68;100.00;99972.09;5139315;28;20060;-62
2023/04/08 07:54:22;;;;;;;15.30;9.38;;;;;;;11.24;100.00;99954.84;5139746;28;20099;-64
2023/04/08 07:56:48;;;;;;;16.63;9.15;;;;;;;11.75;100.00;99994.25;5139232;27;20062;-65
2023/04/08 07:59:14;;;;;;;17.60;8.43;;;;;;;12.28;100.00;99884.09;5139608;27;20082;-66
2023/04/08 08:01:40;;;;;;;19.45;9.15;;;;;;;12.14;100.00;99848.03;5139439;27;20159;-64
2023/04/08 08:04:06;;;;;;;19.67;9.38;;;;;;;12.17;100.00;99790.38;5139342;27;20401;-65
2023/04/08 08:06:32;;;;;;;17.17;8.68;;;;;;;12.80;100.00;99693.00;5139289;28;20043;-63
2023/04/08 08:08:59;;;;;;;21.65;9.93;;;;;;;12.37;100.00;99499.75;5137851;27;20047;-63
2023/04/08 08:11:26;;;;;;;13.02;8.70;;;;;;;12.36;100.00;99599.09;5139320;28;20062;-62
2023/04/08 08:13:52;;;;;;;15.52;9.43;;;;;;;12.70;100.00;99528.56;5138993;27;20048;-66
2023/04/08 08:16:18;;;;;;;14.80;8.70;;;;;;;12.39;100.00;99477.38;5139214;28;20452;-66
2023/04/08 08:18:44;;;;;;;18.98;10.00;;;;;;;13.13;100.00;99471.34;5138899;27;20055;-65
2023/04/08 08:21:10;;;;;;;11.38;8.30;;;;;;;13.35;100.00;99423.63;5139187;27;20061;-62
2023/04/08 08:23:37;;;;;;;19.52;9.65;;;;;;;13.31;100.00;99439.34;5138881;28;20070;-64
2023/04/08 08:26:05;;;;;;;18.80;8.98;;;;;;;13.81;100.00;99400.47;5139205;28;20126;-65
2023/04/08 08:28:31;;;;;;;14.80;9.35;;;;;;;13.34;100.00;99289.09;5138597;27;20063;-65
2023/04/08 08:30:59;;;;;;;15.75;9.60;;;;;;;13.01;100.00;99249.47;5138904;28;20043;-63
2023/04/08 08:33:25;;;;;;;15.77;9.85;;;;;;;13.52;100.00;99350.63;5138663;28;20051;-66
2023/04/08 08:35:51;;;;;;;13.90;9.25;;;;;;;13.37;100.00;99352.47;5138670;28;20061;-66
2023/04/08 08:38:17;;;;;;;16.88;10.05;;;;;;;13.22;100.00;99248.84;5138943;27;20075;-62
2023/04/08 08:40:43;;;;;;;18.65;10.75;;;;;;;13.39;100.00;99313.53;5138645;28;20103;-64
2023/04/08 08:43:09;;;;;;;27.17;11.93;;;;;;;13.59;100.00;99256.25;5138844;28;20047;-63
2023/04/08 08:45:38;;;;;;;22.58;11.95;;;;;;;13.40;100.00;99100.34;5138375;28;20184;-64
2023/04/08 08:48:07;;;;;;;26.45;14.30;;;;;;;13.52;100.00;99094.47;5138707;27;20047;-62
2023/04/08 08:50:33;;;;;;;25.98;12.77;;;;;;;14.07;100.00;99082.50;5138388;28;20054;-65
2023/04/08 08:52:59;;;;;;;21.60;11.38;;;;;;;13.58;100.00;99059.88;5138769;28;20057;-64
2023/04/08 08:55:25;;;;;;;15.93;9.98;;;;;;;13.01;100.00;99061.53;5138528;28;20047;-61
2023/04/08 08:57:51;;;;;;;16.48;9.48;;;;;;;13.79;100.00;99158.38;5138293;27;20515;-61
2023/04/08 09:00:17;;;;;;;17.55;9.38;;;;;;;13.59;100.00;99049.66;5138110;27;20086;-64
2023/04/08 09:02:43;;;;;;;16.23;9.35;;;;;;;13.87;100.00;98960.78;5138084;28;20095;-65
2023/04/08 09:05:09;;;;;;;14.38;8.57;;;;;;;13.74;100.00;98921.03;5138130;28;20061;-61
2023/04/08 09:07:39;;;;;;;15.02;8.50;;;;;;;14.23;100.00;98989.19;5137946;28;20061;-62
2023/04/08 09:10:06;;;;;;;18.38;8.40;;;;;;;13.65;100.00;98971.75;5138350;28;20082;-62
2023/04/08 09:12:32;;;;;;;12.30;8.60;;;;;;;13.23;100.00;99024.72;5138139;28;20142;-61
2023/04/08 09:15:05;;;;;;;16.42;9.35;;;;;;;13.70;100.00;99083.56;5138477;28;20130;-62
2023/04/08 09:17:32;;;;;;;16.25;8.82;;;;;;;13.24;100.00;99147.44;5138026;28;20339;-63
2023/04/08 09:20:10;;;;;;;13.32;8.82;;;;;;;13.34;100.00;99119.19;5137854;27;20050;-63
2023/04/08 09:22:58;;;;;;;13.70;9.50;;;;;;;13.39;100.00;99131.78;5137791;27;20386;-60
2023/04/08 09:25:26;;;;;;;17.05;9.45;;;;;;;13.28;100.00;99205.28;5137941;28;20061;-63
2023/04/08 09:27:53;;;;;;;17.17;9.27;;;;;;;13.35;100.00;99213.59;5137743;28;20051;-62
2023/04/08 09:30:20;;;;;;;21.63;9.18;;;;;;;13.00;100.00;99308.44;5137686;28;20057;-66
2023/04/08 09:32:47;;;;;;;20.50;9.68;;;;;;;13.01;100.00;99263.22;5138094;28;20134;-60
2023/04/08 09:35:15;;;;;;;12.93;8.90;;;;;;;13.03;100.00;99346.19;5137655;28;20058;-65
2023/04/08 09:37:41;;;;;;;19.30;9.73;;;;;;;13.48;100.00;99299.44;5138048;28;20059;-62
2023/04/08 09:40:09;;;;;;;14.88;8.85;;;;;;;12.82;100.00;99302.72;5137652;28;20062;-61
2023/04/08 09:42:39;;;;;;;19.42;11.30;;;;;;;13.42;100.00;99283.25;5138002;28;20130;-65
2023/04/08 09:45:07;;;;;;;17.58;9.52;;;;;;;13.17;100.00;99203.19;5137415;28;20412;-64
2023/04/08 09:47:40;;;;;;;16.73;9.93;;;;;;;13.39;100.00;99262.03;5137640;28;20130;-62
2023/04/08 09:50:08;;;;;;;15.73;9.50;;;;;;;13.64;100.00;99187.03;5137599;28;20100;-63
2023/04/08 09:52:41;;;;;;;21.85;10.07;;;;;;;13.76;100.00;99254.78;5137512;28;20054;-62
2023/04/08 09:55:11;;;;;;;16.88;9.27;;;;;;;13.74;100.00;99235.09;5137738;28;20065;-59
2023/04/08 09:57:43;;;;;;;16.45;9.57;;;;;;;13.86;100.00;99216.28;5137246;28;20055;-65
2023/04/08 10:00:12;;;;;;;17.25;10.57;;;;;;;13.51;100.00;99175.53;5137636;28;20089;-62
2023/04/08 10:02:47;;;;;;;26.77;10.88;;;;;;;13.47;100.00;99194.00;5137297;28;20134;-62
2023/04/08 10:05:14;;;;;;;22.90;10.95;;;;;;;14.04;100.00;99210.84;5138011;28;20139;-62
2023/04/08 10:07:41;;;;;;;17.58;10.93;;;;;;;13.92;100.00;99174.56;5137318;28;20106;-61
2023/04/08 10:10:10;;;;;;;18.52;9.60;;;;;;;14.11;100.00;99119.91;5137427;28;20066;-62
2023/04/08 10:12:36;;;;;;;22.80;10.93;;;;;;;14.51;100.00;99097.97;5137168;28;20388;-64
2023/04/08 10:15:27;;;;;;;23.13;10.48;;;;;;;13.90;100.00;99117.09;5137008;28;20328;-65
2023/04/08 10:17:54;;;;;;;16.20;10.55;;;;;;;14.26;100.00;99097.88;5137540;27;20057;-64
2023/04/08 10:20:42;;;;;;;20.63;10.57;;;;;;;14.40;100.00;99006.13;5136998;28;20428;-61
2023/04/08 10:23:10;;;;;;;16.75;9.68;;;;;;;14.01;100.00;99034.44;5137189;28;20043;-61
2023/04/08 10:25:37;;;;;;;22.30;10.35;;;;;;;14.44;100.00;98998.63;5136936;27;20051;-61
2023/04/08 10:28:24;;;;;;;20.98;11.27;;;;;;;14.40;100.00;99017.16;5137168;28;20115;-60
2023/04/08 10:30:51;;;;;;;18.55;10.27;;;;;;;14.64;100.00;98966.72;5137118;27;20378;-63
2023/04/08 10:33:18;;;;;;;14.82;9.25;;;;;;;14.44;100.00;98893.81;5139678;28;20051;-64
2023/04/08 10:35:47;;;;;;;20.70;10.45;;;;;;;14.51;100.00;98889.09;5140819;27;20069;-65
2023/04/08 10:38:16;;;;;;;16.02;8.90;;;;;;;14.50;100.00;98870.19;5140642;28;20051;-64
2023/04/08 10:40:44;;;;;;;18.60;10.23;;;;;;;14.79;100.00;98876.41;5140945;28;20047;-64
2023/04/08 10:43:11;;;;;;;19.45;10.00;;;;;;;15.04;100.00;98882.59;5140447;28;20326;-63
2023/04/08 10:45:37;;;;;;;18.70;14.95;;;;;;;15.06;100.00;98865.63;5141691;28;20119;-63
2023/04/08 10:48:18;;;;;;;21.38;10.32;;;;;;;14.76;100.00;98861.44;5141176;28;20053;-65
2023/04/08 10:50:51;;;;;;;26.67;11.30;;;;;;;15.62;100.00;98869.22;5140338;28;20139;-62
2023/04/08 10:53:17;;;;;;;23.73;10.52;;;;;;;15.59;100.00;98881.09;5140686;28;20059;-65
2023/04/08 10:55:43;;;;;;;14.85;10.30;;;;;;;15.43;100.00;98884.38;5140433;27;20445;-61
2023/04/08 10:58:11;;;;;;;20.75;10.88;;;;;;;15.85;100.00;98874.22;5140483;28;20149;-63
2023/04/08 11:00:38;;;;;;;17.45;13.27;;;;;;;16.23;100.00;98908.28;5140223;28;20058;-61
2023/04/08 11:03:06;;;;;;;20.67;10.45;;;;;;;15.91;100.00;98897.47;5140590;28;20134;-65
2023/04/08 11:05:32;;;;;;;19.73;10.80;;;;;;;15.77;100.00;98903.13;5140096;27;20046;-61
2023/04/08 11:07:59;;;;;;;26.45;10.73;;;;;;;16.07;100.00;98879.59;5140512;28;20043;-64
2023/04/08 11:10:25;;;;;;;18.27;10.10;;;;;;;15.76;100.00;98865.59;5140025;28;20137;-63
2023/04/08 11:12:53;;;;;;;23.75;10.55;;;;;;;15.52;100.00;98848.78;5140540;28;20074;-63